sensor_id;sensor_type;location;lat;lon;timestamp;P1;durP1;ratioP1;P2;durP2;ratioP2
72354;SDS011;60314;55.040;73.076;2022-07-29T00:01:26;10.38;;;7.15;;
72354;SDS011;60314;55.040;73.076;2022-07-29T00:03:52;12.35;;;7.80;;
72354;SDS011;60314;55.040;73.076;2022-07-29T00:06:19;10.63;;;7.53;;
72354;SDS011;60314;55.040;73.076;2022-07-29T00:08:46;11.10;;;6.85;;
72354;SDS011;60314;55.040;73.076;2022-07-29T00:11:13;11.07;;;6.97;;
72354;SDS011;60314;55.040;73.076;2022-07-29T00:13:46;10.43;;;7.20;;
72354;SDS011;60314;55.040;73.076;2022-07-29T00:16:13;8.30;;;6.60;;
72354;SDS011;60314;55.040;73.076;2022-07-29T00:18:41;8.90;;;6.05;;
72354;SDS011;60314;55.040;73.076;2022-07-29T00:21:08;9.45;;;6.45;;
72354;SDS011;60314;55.040;73.076;2022-07-29T00:23:45;10.00;;;6.63;;
72354;SDS011;60314;55.040;73.076;2022-07-29T00:26:11;9.65;;;6.13;;
72354;SDS011;60314;55.040;73.076;2022-07-29T00:28:47;11.15;;;6.63;;
72354;SDS011;60314;55.040;73.076;2022-07-29T00:31:14;10.07;;;6.72;;
72354;SDS011;60314;55.040;73.076;2022-07-29T00:33:40;8.93;;;6.20;;
72354;SDS011;60314;55.040;73.076;2022-07-29T00:36:07;10.15;;;6.40;;
72354;SDS011;60314;55.040;73.076;2022-07-29T00:38:33;8.63;;;5.75;;
72354;SDS011;60314;55.040;73.076;2022-07-29T00:41:00;9.57;;;6.40;;
72354;SDS011;60314;55.040;73.076;2022-07-29T00:43:27;10.10;;;6.40;;
72354;SDS011;60314;55.040;73.076;2022-07-29T00:45:53;8.32;;;6.20;;
72354;SDS011;60314;55.040;73.076;2022-07-29T00:48:38;9.55;;;6.10;;
72354;SDS011;60314;55.040;73.076;2022-07-29T00:51:05;12.77;;;6.82;;
72354;SDS011;60314;55.040;73.076;2022-07-29T00:53:33;11.40;;;6.32;;
72354;SDS011;60314;55.040;73.076;2022-07-29T00:56:01;12.52;;;7.95;;
72354;SDS011;60314;55.040;73.076;2022-07-29T00:58:28;16.20;;;9.82;;
72354;SDS011;60314;55.040;73.076;2022-07-29T01:00:54;21.27;;;15.25;;
72354;SDS011;60314;55.040;73.076;2022-07-29T01:03:21;25.25;;;14.40;;
72354;SDS011;60314;55.040;73.076;2022-07-29T01:05:47;15.18;;;11.95;;
72354;SDS011;60314;55.040;73.076;2022-07-29T01:08:14;15.48;;;12.70;;
72354;SDS011;60314;55.040;73.076;2022-07-29T01:10:48;18.60;;;12.20;;
72354;SDS011;60314;55.040;73.076;2022-07-29T01:13:16;16.13;;;14.20;;
72354;SDS011;60314;55.040;73.076;2022-07-29T01:15:44;17.63;;;13.90;;
72354;SDS011;60314;55.040;73.076;2022-07-29T01:18:21;12.70;;;9.43;;
72354;SDS011;60314;55.040;73.076;2022-07-29T01:27:24;14.60;;;12.23;;
72354;SDS011;60314;55.040;73.076;2022-07-29T01:29:56;18.67;;;13.27;;
72354;SDS011;60314;55.040;73.076;2022-07-29T01:32:27;17.25;;;13.93;;
72354;SDS011;60314;55.040;73.076;2022-07-29T01:35:13;14.98;;;12.70;;
72354;SDS011;60314;55.040;73.076;2022-07-29T01:40:31;17.15;;;13.15;;
72354;SDS011;60314;55.040;73.076;2022-07-29T01:43:14;21.38;;;15.80;;
72354;SDS011;60314;55.040;73.076;2022-07-29T01:48:40;20.05;;;16.77;;
72354;SDS011;60314;55.040;73.076;2022-07-29T01:51:13;19.13;;;16.65;;
72354;SDS011;60314;55.040;73.076;2022-07-29T01:54:01;18.15;;;15.52;;
72354;SDS011;60314;55.040;73.076;2022-07-29T01:56:32;16.40;;;13.98;;
72354;SDS011;60314;55.040;73.076;2022-07-29T01:59:06;17.80;;;15.82;;
72354;SDS011;60314;55.040;73.076;2022-07-29T02:01:33;16.95;;;15.10;;
72354;SDS011;60314;55.040;73.076;2022-07-29T02:04:04;17.58;;;14.57;;
72354;SDS011;60314;55.040;73.076;2022-07-29T02:06:33;22.45;;;17.83;;
72354;SDS011;60314;55.040;73.076;2022-07-29T02:09:03;22.40;;;18.70;;
72354;SDS011;60314;55.040;73.076;2022-07-29T02:11:31;21.10;;;18.92;;
72354;SDS011;60314;55.040;73.076;2022-07-29T02:14:00;22.55;;;20.10;;
72354;SDS011;60314;55.040;73.076;2022-07-29T02:16:33;21.00;;;15.75;;
72354;SDS011;60314;55.040;73.076;2022-07-29T02:19:02;19.90;;;16.40;;
72354;SDS011;60314;55.040;73.076;2022-07-29T02:21:35;18.55;;;14.63;;
72354;SDS011;60314;55.040;73.076;2022-07-29T02:24:02;15.82;;;10.55;;
72354;SDS011;60314;55.040;73.076;2022-07-29T02:26:40;11.88;;;7.75;;
72354;SDS011;60314;55.040;73.076;2022-07-29T02:29:13;16.38;;;8.63;;
72354;SDS011;60314;55.040;73.076;2022-07-29T02:31:48;15.05;;;8.93;;
72354;SDS011;60314;55.040;73.076;2022-07-29T02:34:16;20.00;;;10.32;;
72354;SDS011;60314;55.040;73.076;2022-07-29T02:36:46;28.27;;;15.38;;
72354;SDS011;60314;55.040;73.076;2022-07-29T02:39:14;28.85;;;14.70;;
72354;SDS011;60314;55.040;73.076;2022-07-29T02:41:46;19.55;;;11.95;;
72354;SDS011;60314;55.040;73.076;2022-07-29T02:44:15;16.48;;;10.35;;
72354;SDS011;60314;55.040;73.076;2022-07-29T02:52:21;9.65;;;6.57;;
72354;SDS011;60314;55.040;73.076;2022-07-29T02:54:55;9.07;;;6.78;;
72354;SDS011;60314;55.040;73.076;2022-07-29T03:00:06;10.80;;;6.38;;
72354;SDS011;60314;55.040;73.076;2022-07-29T03:02:38;9.18;;;6.20;;
72354;SDS011;60314;55.040;73.076;2022-07-29T03:05:09;9.20;;;5.85;;
72354;SDS011;60314;55.040;73.076;2022-07-29T03:07:41;9.15;;;6.60;;
72354;SDS011;60314;55.040;73.076;2022-07-29T03:10:11;7.80;;;6.00;;
72354;SDS011;60314;55.040;73.076;2022-07-29T03:12:39;8.02;;;6.20;;
72354;SDS011;60314;55.040;73.076;2022-07-29T03:15:06;11.82;;;7.07;;
72354;SDS011;60314;55.040;73.076;2022-07-29T03:17:34;9.10;;;6.38;;
72354;SDS011;60314;55.040;73.076;2022-07-29T03:20:02;10.93;;;7.32;;
72354;SDS011;60314;55.040;73.076;2022-07-29T03:22:29;8.63;;;6.47;;
72354;SDS011;60314;55.040;73.076;2022-07-29T03:24:56;10.25;;;6.38;;
72354;SDS011;60314;55.040;73.076;2022-07-29T03:27:23;10.43;;;7.32;;
72354;SDS011;60314;55.040;73.076;2022-07-29T03:29:49;13.82;;;5.97;;
72354;SDS011;60314;55.040;73.076;2022-07-29T03:32:15;8.88;;;5.63;;
72354;SDS011;60314;55.040;73.076;2022-07-29T03:34:42;8.65;;;5.93;;
72354;SDS011;60314;55.040;73.076;2022-07-29T03:37:09;9.07;;;5.47;;
72354;SDS011;60314;55.040;73.076;2022-07-29T03:39:40;10.52;;;5.20;;
72354;SDS011;60314;55.040;73.076;2022-07-29T03:42:10;11.73;;;5.93;;
72354;SDS011;60314;55.040;73.076;2022-07-29T03:44:39;11.98;;;4.82;;
72354;SDS011;60314;55.040;73.076;2022-07-29T03:47:07;9.25;;;4.90;;
72354;SDS011;60314;55.040;73.076;2022-07-29T03:49:36;7.72;;;5.45;;
72354;SDS011;60314;55.040;73.076;2022-07-29T03:52:04;8.20;;;5.80;;
72354;SDS011;60314;55.040;73.076;2022-07-29T03:54:32;8.57;;;5.05;;
72354;SDS011;60314;55.040;73.076;2022-07-29T03:56:59;11.00;;;6.55;;
72354;SDS011;60314;55.040;73.076;2022-07-29T03:59:27;9.30;;;6.20;;
72354;SDS011;60314;55.040;73.076;2022-07-29T04:01:55;8.65;;;5.30;;
72354;SDS011;60314;55.040;73.076;2022-07-29T04:04:23;7.82;;;5.47;;
72354;SDS011;60314;55.040;73.076;2022-07-29T04:06:51;8.05;;;5.50;;
72354;SDS011;60314;55.040;73.076;2022-07-29T04:09:17;6.75;;;4.95;;
72354;SDS011;60314;55.040;73.076;2022-07-29T04:11:44;7.63;;;4.50;;
72354;SDS011;60314;55.040;73.076;2022-07-29T04:14:11;7.43;;;5.53;;
72354;SDS011;60314;55.040;73.076;2022-07-29T04:16:37;7.50;;;4.55;;
72354;SDS011;60314;55.040;73.076;2022-07-29T04:19:04;7.18;;;4.75;;
72354;SDS011;60314;55.040;73.076;2022-07-29T04:21:30;8.73;;;5.18;;
72354;SDS011;60314;55.040;73.076;2022-07-29T04:23:57;8.88;;;5.07;;
72354;SDS011;60314;55.040;73.076;2022-07-29T04:26:23;9.55;;;5.53;;
72354;SDS011;60314;55.040;73.076;2022-07-29T04:28:50;7.20;;;5.25;;
72354;SDS011;60314;55.040;73.076;2022-07-29T04:31:16;7.55;;;5.38;;
72354;SDS011;60314;55.040;73.076;2022-07-29T04:33:43;10.15;;;6.30;;
72354;SDS011;60314;55.040;73.076;2022-07-29T04:38:41;8.73;;;6.38;;
72354;SDS011;60314;55.040;73.076;2022-07-29T04:41:07;12.82;;;7.05;;
72354;SDS011;60314;55.040;73.076;2022-07-29T04:43:34;11.80;;;7.75;;
72354;SDS011;60314;55.040;73.076;2022-07-29T04:46:02;11.40;;;7.30;;
72354;SDS011;60314;55.040;73.076;2022-07-29T04:48:29;14.70;;;7.18;;
72354;SDS011;60314;55.040;73.076;2022-07-29T04:50:56;32.47;;;8.27;;
72354;SDS011;60314;55.040;73.076;2022-07-29T04:53:23;18.58;;;9.80;;
72354;SDS011;60314;55.040;73.076;2022-07-29T04:55:49;14.05;;;9.75;;
72354;SDS011;60314;55.040;73.076;2022-07-29T04:58:16;16.60;;;10.45;;
72354;SDS011;60314;55.040;73.076;2022-07-29T05:00:42;15.75;;;10.98;;
72354;SDS011;60314;55.040;73.076;2022-07-29T05:03:09;20.75;;;12.88;;
72354;SDS011;60314;55.040;73.076;2022-07-29T05:05:36;15.73;;;10.68;;
72354;SDS011;60314;55.040;73.076;2022-07-29T05:08:03;18.75;;;11.80;;
72354;SDS011;60314;55.040;73.076;2022-07-29T05:10:30;22.92;;;13.85;;
72354;SDS011;60314;55.040;73.076;2022-07-29T05:12:56;17.45;;;11.80;;
72354;SDS011;60314;55.040;73.076;2022-07-29T05:15:23;16.38;;;11.63;;
72354;SDS011;60314;55.040;73.076;2022-07-29T05:17:59;15.95;;;10.68;;
72354;SDS011;60314;55.040;73.076;2022-07-29T05:20:27;23.15;;;12.05;;
72354;SDS011;60314;55.040;73.076;2022-07-29T05:22:55;14.27;;;10.10;;
72354;SDS011;60314;55.040;73.076;2022-07-29T05:25:24;18.10;;;10.80;;
72354;SDS011;60314;55.040;73.076;2022-07-29T05:27:51;17.27;;;10.77;;
72354;SDS011;60314;55.040;73.076;2022-07-29T05:30:18;15.88;;;11.45;;
72354;SDS011;60314;55.040;73.076;2022-07-29T05:32:45;22.35;;;11.65;;
72354;SDS011;60314;55.040;73.076;2022-07-29T05:35:12;17.15;;;11.38;;
72354;SDS011;60314;55.040;73.076;2022-07-29T05:37:39;17.10;;;11.02;;
72354;SDS011;60314;55.040;73.076;2022-07-29T05:40:07;15.40;;;11.02;;
72354;SDS011;60314;55.040;73.076;2022-07-29T05:42:34;15.43;;;10.60;;
72354;SDS011;60314;55.040;73.076;2022-07-29T05:45:01;18.30;;;11.85;;
72354;SDS011;60314;55.040;73.076;2022-07-29T05:47:34;14.05;;;9.15;;
72354;SDS011;60314;55.040;73.076;2022-07-29T05:50:01;16.90;;;9.77;;
72354;SDS011;60314;55.040;73.076;2022-07-29T05:52:39;14.30;;;9.68;;
72354;SDS011;60314;55.040;73.076;2022-07-29T05:55:06;15.88;;;10.43;;
72354;SDS011;60314;55.040;73.076;2022-07-29T05:57:33;14.25;;;9.23;;
72354;SDS011;60314;55.040;73.076;2022-07-29T06:00:00;13.57;;;9.38;;
72354;SDS011;60314;55.040;73.076;2022-07-29T06:02:26;13.00;;;7.85;;
72354;SDS011;60314;55.040;73.076;2022-07-29T06:04:52;11.70;;;8.55;;
72354;SDS011;60314;55.040;73.076;2022-07-29T06:07:19;11.60;;;8.27;;
72354;SDS011;60314;55.040;73.076;2022-07-29T06:09:46;12.07;;;8.63;;
72354;SDS011;60314;55.040;73.076;2022-07-29T06:12:12;13.93;;;7.50;;
72354;SDS011;60314;55.040;73.076;2022-07-29T06:14:38;13.55;;;7.18;;
72354;SDS011;60314;55.040;73.076;2022-07-29T06:19:48;11.57;;;6.68;;
72354;SDS011;60314;55.040;73.076;2022-07-29T06:22:15;13.50;;;7.32;;
72354;SDS011;60314;55.040;73.076;2022-07-29T06:24:43;12.60;;;6.82;;
72354;SDS011;60314;55.040;73.076;2022-07-29T06:27:14;10.40;;;7.53;;
72354;SDS011;60314;55.040;73.076;2022-07-29T06:29:51;10.40;;;7.47;;
72354;SDS011;60314;55.040;73.076;2022-07-29T06:32:28;9.98;;;6.65;;
72354;SDS011;60314;55.040;73.076;2022-07-29T06:34:59;12.15;;;8.00;;
72354;SDS011;60314;55.040;73.076;2022-07-29T06:37:30;14.00;;;7.50;;
72354;SDS011;60314;55.040;73.076;2022-07-29T06:39:56;11.90;;;7.70;;
72354;SDS011;60314;55.040;73.076;2022-07-29T06:42:46;12.82;;;7.70;;
72354;SDS011;60314;55.040;73.076;2022-07-29T06:45:13;10.20;;;7.63;;
72354;SDS011;60314;55.040;73.076;2022-07-29T06:47:42;12.05;;;7.80;;
72354;SDS011;60314;55.040;73.076;2022-07-29T06:50:08;14.73;;;7.80;;
72354;SDS011;60314;55.040;73.076;2022-07-29T06:52:43;13.73;;;7.53;;
72354;SDS011;60314;55.040;73.076;2022-07-29T06:55:10;11.48;;;7.70;;
72354;SDS011;60314;55.040;73.076;2022-07-29T06:57:47;14.35;;;8.43;;
72354;SDS011;60314;55.040;73.076;2022-07-29T07:00:14;12.50;;;7.30;;
72354;SDS011;60314;55.040;73.076;2022-07-29T07:02:50;11.15;;;7.10;;
72354;SDS011;60314;55.040;73.076;2022-07-29T07:05:17;8.73;;;6.57;;
72354;SDS011;60314;55.040;73.076;2022-07-29T07:07:44;10.27;;;7.20;;
72354;SDS011;60314;55.040;73.076;2022-07-29T07:10:16;10.68;;;7.68;;
72354;SDS011;60314;55.040;73.076;2022-07-29T07:12:52;15.27;;;8.05;;
72354;SDS011;60314;55.040;73.076;2022-07-29T07:15:28;14.75;;;7.90;;
72354;SDS011;60314;55.040;73.076;2022-07-29T07:17:54;14.32;;;7.07;;
72354;SDS011;60314;55.040;73.076;2022-07-29T07:20:26;12.68;;;7.78;;
72354;SDS011;60314;55.040;73.076;2022-07-29T07:22:53;9.65;;;6.45;;
72354;SDS011;60314;55.040;73.076;2022-07-29T07:25:19;14.93;;;7.95;;
72354;SDS011;60314;55.040;73.076;2022-07-29T07:27:50;11.20;;;7.53;;
72354;SDS011;60314;55.040;73.076;2022-07-29T07:30:17;14.82;;;7.30;;
72354;SDS011;60314;55.040;73.076;2022-07-29T07:32:47;10.38;;;7.32;;
72354;SDS011;60314;55.040;73.076;2022-07-29T07:35:23;12.35;;;7.03;;
72354;SDS011;60314;55.040;73.076;2022-07-29T07:38:01;11.43;;;8.00;;
72354;SDS011;60314;55.040;73.076;2022-07-29T07:40:27;9.70;;;6.95;;
72354;SDS011;60314;55.040;73.076;2022-07-29T07:42:55;9.55;;;7.18;;
72354;SDS011;60314;55.040;73.076;2022-07-29T07:45:21;12.63;;;7.40;;
72354;SDS011;60314;55.040;73.076;2022-07-29T07:47:48;10.38;;;7.30;;
72354;SDS011;60314;55.040;73.076;2022-07-29T07:50:25;14.43;;;7.78;;
72354;SDS011;60314;55.040;73.076;2022-07-29T07:52:53;10.00;;;7.05;;
72354;SDS011;60314;55.040;73.076;2022-07-29T07:55:23;9.98;;;7.45;;
72354;SDS011;60314;55.040;73.076;2022-07-29T07:57:50;11.10;;;7.40;;
72354;SDS011;60314;55.040;73.076;2022-07-29T08:00:17;12.60;;;7.15;;
72354;SDS011;60314;55.040;73.076;2022-07-29T08:02:43;12.80;;;8.40;;
72354;SDS011;60314;55.040;73.076;2022-07-29T08:05:11;15.38;;;7.65;;
72354;SDS011;60314;55.040;73.076;2022-07-29T08:07:43;11.85;;;7.28;;
72354;SDS011;60314;55.040;73.076;2022-07-29T08:10:11;16.77;;;7.40;;
72354;SDS011;60314;55.040;73.076;2022-07-29T08:12:38;11.20;;;7.22;;
72354;SDS011;60314;55.040;73.076;2022-07-29T08:15:14;13.43;;;8.30;;
72354;SDS011;60314;55.040;73.076;2022-07-29T08:17:45;11.52;;;7.50;;
72354;SDS011;60314;55.040;73.076;2022-07-29T08:20:11;11.30;;;7.45;;
72354;SDS011;60314;55.040;73.076;2022-07-29T08:22:38;9.45;;;7.18;;
72354;SDS011;60314;55.040;73.076;2022-07-29T08:25:09;9.85;;;7.05;;
72354;SDS011;60314;55.040;73.076;2022-07-29T08:27:36;11.82;;;7.00;;
72354;SDS011;60314;55.040;73.076;2022-07-29T08:30:02;15.73;;;7.18;;
72354;SDS011;60314;55.040;73.076;2022-07-29T08:32:29;11.00;;;6.57;;
72354;SDS011;60314;55.040;73.076;2022-07-29T08:34:57;10.18;;;6.65;;
72354;SDS011;60314;55.040;73.076;2022-07-29T08:37:23;11.05;;;6.28;;
72354;SDS011;60314;55.040;73.076;2022-07-29T08:39:50;9.98;;;6.78;;
72354;SDS011;60314;55.040;73.076;2022-07-29T08:42:16;11.88;;;7.03;;
72354;SDS011;60314;55.040;73.076;2022-07-29T08:44:43;13.68;;;6.63;;
72354;SDS011;60314;55.040;73.076;2022-07-29T08:47:10;12.00;;;6.43;;
72354;SDS011;60314;55.040;73.076;2022-07-29T08:49:39;10.50;;;6.63;;
72354;SDS011;60314;55.040;73.076;2022-07-29T08:52:11;9.75;;;6.35;;
72354;SDS011;60314;55.040;73.076;2022-07-29T08:54:40;10.70;;;6.35;;
72354;SDS011;60314;55.040;73.076;2022-07-29T08:57:10;16.77;;;7.72;;
72354;SDS011;60314;55.040;73.076;2022-07-29T08:59:44;14.13;;;7.35;;
72354;SDS011;60314;55.040;73.076;2022-07-29T09:02:16;10.88;;;7.00;;
72354;SDS011;60314;55.040;73.076;2022-07-29T09:04:46;8.63;;;6.32;;
72354;SDS011;60314;55.040;73.076;2022-07-29T09:07:17;9.35;;;6.35;;
72354;SDS011;60314;55.040;73.076;2022-07-29T09:12:11;12.00;;;6.28;;
72354;SDS011;60314;55.040;73.076;2022-07-29T09:14:38;8.98;;;6.03;;
72354;SDS011;60314;55.040;73.076;2022-07-29T09:17:05;9.85;;;6.60;;
72354;SDS011;60314;55.040;73.076;2022-07-29T09:19:39;9.27;;;5.95;;
72354;SDS011;60314;55.040;73.076;2022-07-29T09:22:06;13.23;;;7.57;;
72354;SDS011;60314;55.040;73.076;2022-07-29T09:27:12;9.60;;;6.68;;
72354;SDS011;60314;55.040;73.076;2022-07-29T09:32:26;14.85;;;6.68;;
72354;SDS011;60314;55.040;73.076;2022-07-29T09:37:43;15.63;;;7.15;;
72354;SDS011;60314;55.040;73.076;2022-07-29T09:42:41;11.48;;;6.25;;
72354;SDS011;60314;55.040;73.076;2022-07-29T09:45:08;9.73;;;6.55;;
72354;SDS011;60314;55.040;73.076;2022-07-29T09:47:45;11.38;;;7.20;;
72354;SDS011;60314;55.040;73.076;2022-07-29T09:50:15;8.43;;;6.35;;
72354;SDS011;60314;55.040;73.076;2022-07-29T09:52:45;10.65;;;6.40;;
72354;SDS011;60314;55.040;73.076;2022-07-29T09:55:16;11.60;;;6.53;;
72354;SDS011;60314;55.040;73.076;2022-07-29T09:57:44;8.57;;;6.65;;
72354;SDS011;60314;55.040;73.076;2022-07-29T10:00:15;11.55;;;6.97;;
72354;SDS011;60314;55.040;73.076;2022-07-29T10:02:44;9.02;;;6.63;;
72354;SDS011;60314;55.040;73.076;2022-07-29T10:05:25;8.77;;;6.28;;
72354;SDS011;60314;55.040;73.076;2022-07-29T10:07:55;9.95;;;6.45;;
72354;SDS011;60314;55.040;73.076;2022-07-29T10:12:56;9.73;;;7.00;;
72354;SDS011;60314;55.040;73.076;2022-07-29T10:15:32;9.70;;;6.90;;
72354;SDS011;60314;55.040;73.076;2022-07-29T10:18:04;14.20;;;7.25;;
72354;SDS011;60314;55.040;73.076;2022-07-29T10:20:33;12.10;;;6.70;;
72354;SDS011;60314;55.040;73.076;2022-07-29T10:23:00;9.85;;;6.82;;
72354;SDS011;60314;55.040;73.076;2022-07-29T10:25:26;9.10;;;7.03;;
72354;SDS011;60314;55.040;73.076;2022-07-29T10:27:55;12.15;;;7.05;;
72354;SDS011;60314;55.040;73.076;2022-07-29T10:30:22;8.25;;;6.45;;
72354;SDS011;60314;55.040;73.076;2022-07-29T10:44:46;9.98;;;6.50;;
72354;SDS011;60314;55.040;73.076;2022-07-29T10:47:20;9.90;;;6.82;;
72354;SDS011;60314;55.040;73.076;2022-07-29T10:50:04;12.73;;;7.35;;
72354;SDS011;60314;55.040;73.076;2022-07-29T10:53:03;9.70;;;7.15;;
72354;SDS011;60314;55.040;73.076;2022-07-29T10:55:30;9.63;;;6.93;;
72354;SDS011;60314;55.040;73.076;2022-07-29T11:00:45;11.70;;;6.45;;
72354;SDS011;60314;55.040;73.076;2022-07-29T11:06:17;10.63;;;7.35;;
72354;SDS011;60314;55.040;73.076;2022-07-29T11:08:44;12.95;;;6.35;;
72354;SDS011;60314;55.040;73.076;2022-07-29T11:13:56;14.35;;;6.80;;
72354;SDS011;60314;55.040;73.076;2022-07-29T11:16:23;11.05;;;7.25;;
72354;SDS011;60314;55.040;73.076;2022-07-29T11:21:48;9.48;;;6.82;;
72354;SDS011;60314;55.040;73.076;2022-07-29T11:24:17;9.80;;;6.60;;
72354;SDS011;60314;55.040;73.076;2022-07-29T11:29:49;9.53;;;6.80;;
72354;SDS011;60314;55.040;73.076;2022-07-29T11:32:20;10.15;;;6.75;;
72354;SDS011;60314;55.040;73.076;2022-07-29T11:34:48;9.32;;;7.32;;
72354;SDS011;60314;55.040;73.076;2022-07-29T11:37:16;12.75;;;7.30;;
72354;SDS011;60314;55.040;73.076;2022-07-29T11:39:46;9.80;;;6.68;;
72354;SDS011;60314;55.040;73.076;2022-07-29T11:44:57;10.53;;;7.10;;
72354;SDS011;60314;55.040;73.076;2022-07-29T11:47:25;11.63;;;7.13;;
72354;SDS011;60314;55.040;73.076;2022-07-29T11:50:03;9.80;;;6.75;;
72354;SDS011;60314;55.040;73.076;2022-07-29T11:52:35;8.38;;;6.75;;
72354;SDS011;60314;55.040;73.076;2022-07-29T11:55:19;9.93;;;6.63;;
72354;SDS011;60314;55.040;73.076;2022-07-29T12:00:40;8.65;;;6.20;;
72354;SDS011;60314;55.040;73.076;2022-07-29T12:03:09;8.15;;;6.45;;
72354;SDS011;60314;55.040;73.076;2022-07-29T12:08:18;10.35;;;6.65;;
72354;SDS011;60314;55.040;73.076;2022-07-29T12:10:51;9.18;;;6.28;;
72354;SDS011;60314;55.040;73.076;2022-07-29T12:13:18;9.95;;;7.00;;
72354;SDS011;60314;55.040;73.076;2022-07-29T12:15:53;8.15;;;5.95;;
72354;SDS011;60314;55.040;73.076;2022-07-29T12:18:30;8.90;;;5.97;;
72354;SDS011;60314;55.040;73.076;2022-07-29T12:20:59;10.60;;;5.72;;
72354;SDS011;60314;55.040;73.076;2022-07-29T12:23:33;7.03;;;5.28;;
72354;SDS011;60314;55.040;73.076;2022-07-29T12:26:19;8.07;;;4.80;;
72354;SDS011;60314;55.040;73.076;2022-07-29T12:28:45;7.78;;;5.63;;
72354;SDS011;60314;55.040;73.076;2022-07-29T12:31:15;8.85;;;5.18;;
72354;SDS011;60314;55.040;73.076;2022-07-29T12:33:42;9.93;;;5.47;;
72354;SDS011;60314;55.040;73.076;2022-07-29T12:36:18;9.23;;;5.25;;
72354;SDS011;60314;55.040;73.076;2022-07-29T12:38:44;7.05;;;5.05;;
72354;SDS011;60314;55.040;73.076;2022-07-29T12:41:12;7.63;;;5.65;;
72354;SDS011;60314;55.040;73.076;2022-07-29T12:43:53;7.13;;;5.20;;
72354;SDS011;60314;55.040;73.076;2022-07-29T12:46:20;7.53;;;5.35;;
72354;SDS011;60314;55.040;73.076;2022-07-29T12:49:05;7.78;;;5.05;;
72354;SDS011;60314;55.040;73.076;2022-07-29T12:51:34;8.45;;;4.97;;
72354;SDS011;60314;55.040;73.076;2022-07-29T12:54:09;8.82;;;4.82;;
72354;SDS011;60314;55.040;73.076;2022-07-29T12:56:37;11.80;;;5.15;;
72354;SDS011;60314;55.040;73.076;2022-07-29T12:59:17;11.93;;;4.70;;
72354;SDS011;60314;55.040;73.076;2022-07-29T13:01:46;10.30;;;5.10;;
72354;SDS011;60314;55.040;73.076;2022-07-29T13:04:32;9.32;;;5.15;;
72354;SDS011;60314;55.040;73.076;2022-07-29T13:07:06;7.53;;;4.93;;
72354;SDS011;60314;55.040;73.076;2022-07-29T13:09:37;6.70;;;4.70;;
72354;SDS011;60314;55.040;73.076;2022-07-29T13:12:06;7.32;;;5.38;;
72354;SDS011;60314;55.040;73.076;2022-07-29T13:14:38;6.50;;;4.75;;
72354;SDS011;60314;55.040;73.076;2022-07-29T13:17:13;6.55;;;4.97;;
72354;SDS011;60314;55.040;73.076;2022-07-29T13:19:48;6.80;;;4.53;;
72354;SDS011;60314;55.040;73.076;2022-07-29T13:22:17;7.05;;;4.93;;
72354;SDS011;60314;55.040;73.076;2022-07-29T13:24:46;9.32;;;5.07;;
72354;SDS011;60314;55.040;73.076;2022-07-29T13:27:14;6.88;;;4.57;;
72354;SDS011;60314;55.040;73.076;2022-07-29T13:29:41;5.55;;;4.28;;
72354;SDS011;60314;55.040;73.076;2022-07-29T13:32:08;6.80;;;4.45;;
72354;SDS011;60314;55.040;73.076;2022-07-29T13:34:35;8.15;;;4.32;;
72354;SDS011;60314;55.040;73.076;2022-07-29T13:37:01;6.35;;;4.25;;
72354;SDS011;60314;55.040;73.076;2022-07-29T13:39:32;7.97;;;3.70;;
72354;SDS011;60314;55.040;73.076;2022-07-29T13:41:59;7.72;;;4.18;;
72354;SDS011;60314;55.040;73.076;2022-07-29T13:44:29;4.82;;;3.65;;
72354;SDS011;60314;55.040;73.076;2022-07-29T13:46:56;7.72;;;4.00;;
72354;SDS011;60314;55.040;73.076;2022-07-29T13:49:25;7.72;;;3.75;;
72354;SDS011;60314;55.040;73.076;2022-07-29T13:51:51;8.38;;;3.90;;
72354;SDS011;60314;55.040;73.076;2022-07-29T13:54:18;7.68;;;3.47;;
72354;SDS011;60314;55.040;73.076;2022-07-29T13:56:45;7.25;;;3.92;;
72354;SDS011;60314;55.040;73.076;2022-07-29T13:59:11;5.88;;;3.90;;
72354;SDS011;60314;55.040;73.076;2022-07-29T14:01:44;8.23;;;4.10;;
72354;SDS011;60314;55.040;73.076;2022-07-29T14:04:12;5.50;;;3.92;;
72354;SDS011;60314;55.040;73.076;2022-07-29T14:06:39;7.53;;;3.95;;
72354;SDS011;60314;55.040;73.076;2022-07-29T14:09:08;4.95;;;3.28;;
72354;SDS011;60314;55.040;73.076;2022-07-29T14:11:40;8.32;;;3.67;;
72354;SDS011;60314;55.040;73.076;2022-07-29T14:14:17;6.75;;;3.85;;
72354;SDS011;60314;55.040;73.076;2022-07-29T14:16:43;6.03;;;3.65;;
72354;SDS011;60314;55.040;73.076;2022-07-29T14:19:10;6.35;;;3.65;;
72354;SDS011;60314;55.040;73.076;2022-07-29T14:21:37;8.60;;;3.88;;
72354;SDS011;60314;55.040;73.076;2022-07-29T14:24:13;5.95;;;3.28;;
72354;SDS011;60314;55.040;73.076;2022-07-29T14:26:40;8.07;;;3.60;;
72354;SDS011;60314;55.040;73.076;2022-07-29T14:29:06;6.30;;;3.90;;
72354;SDS011;60314;55.040;73.076;2022-07-29T14:31:33;6.85;;;3.63;;
72354;SDS011;60314;55.040;73.076;2022-07-29T14:33:59;6.05;;;3.08;;
72354;SDS011;60314;55.040;73.076;2022-07-29T14:36:26;4.93;;;3.42;;
72354;SDS011;60314;55.040;73.076;2022-07-29T14:38:53;6.50;;;3.53;;
72354;SDS011;60314;55.040;73.076;2022-07-29T14:41:19;6.13;;;3.90;;
72354;SDS011;60314;55.040;73.076;2022-07-29T14:43:52;5.28;;;3.63;;
72354;SDS011;60314;55.040;73.076;2022-07-29T14:46:19;6.88;;;4.18;;
72354;SDS011;60314;55.040;73.076;2022-07-29T14:48:45;5.88;;;3.40;;
72354;SDS011;60314;55.040;73.076;2022-07-29T14:51:22;7.85;;;3.70;;
72354;SDS011;60314;55.040;73.076;2022-07-29T14:53:48;7.03;;;3.67;;
72354;SDS011;60314;55.040;73.076;2022-07-29T14:56:25;6.55;;;3.72;;
72354;SDS011;60314;55.040;73.076;2022-07-29T14:58:52;5.85;;;3.47;;
72354;SDS011;60314;55.040;73.076;2022-07-29T15:01:19;8.43;;;3.60;;
72354;SDS011;60314;55.040;73.076;2022-07-29T15:03:45;4.72;;;2.97;;
72354;SDS011;60314;55.040;73.076;2022-07-29T15:06:22;9.60;;;3.65;;
72354;SDS011;60314;55.040;73.076;2022-07-29T15:09:06;5.25;;;3.30;;
72354;SDS011;60314;55.040;73.076;2022-07-29T15:11:33;6.80;;;3.17;;
72354;SDS011;60314;55.040;73.076;2022-07-29T15:13:59;5.03;;;3.15;;
72354;SDS011;60314;55.040;73.076;2022-07-29T15:16:26;7.53;;;3.40;;
72354;SDS011;60314;55.040;73.076;2022-07-29T15:18:52;7.07;;;3.38;;
72354;SDS011;60314;55.040;73.076;2022-07-29T15:21:19;7.30;;;3.35;;
72354;SDS011;60314;55.040;73.076;2022-07-29T15:23:45;6.63;;;3.58;;
72354;SDS011;60314;55.040;73.076;2022-07-29T15:26:12;7.50;;;3.42;;
72354;SDS011;60314;55.040;73.076;2022-07-29T15:28:38;5.93;;;3.10;;
72354;SDS011;60314;55.040;73.076;2022-07-29T15:31:06;4.97;;;2.80;;
72354;SDS011;60314;55.040;73.076;2022-07-29T15:33:44;5.15;;;2.50;;
72354;SDS011;60314;55.040;73.076;2022-07-29T15:36:29;6.57;;;2.72;;
72354;SDS011;60314;55.040;73.076;2022-07-29T15:38:55;6.13;;;3.25;;
72354;SDS011;60314;55.040;73.076;2022-07-29T15:41:22;4.88;;;3.00;;
72354;SDS011;60314;55.040;73.076;2022-07-29T15:43:51;5.85;;;2.80;;
72354;SDS011;60314;55.040;73.076;2022-07-29T15:46:18;4.35;;;2.70;;
72354;SDS011;60314;55.040;73.076;2022-07-29T15:49:13;5.20;;;3.03;;
72354;SDS011;60314;55.040;73.076;2022-07-29T15:51:40;8.00;;;2.72;;
72354;SDS011;60314;55.040;73.076;2022-07-29T15:54:06;8.57;;;2.80;;
72354;SDS011;60314;55.040;73.076;2022-07-29T15:56:43;8.43;;;3.13;;